createdAt,value
2022-12-08T00:01:59.480Z,-1.55
2022-12-08T00:04:27.457Z,-1.58
2022-12-08T00:07:14.019Z,-1.61
2022-12-08T00:09:42.073Z,-1.66
2022-12-08T00:12:15.417Z,-1.70
2022-12-08T00:14:47.056Z,-1.74
2022-12-08T00:17:15.887Z,-1.77
2022-12-08T00:19:44.136Z,-1.79
2022-12-08T00:22:12.783Z,-1.83
2022-12-08T00:24:41.330Z,-1.87
2022-12-08T00:27:10.565Z,-1.90
2022-12-08T00:29:38.871Z,-1.89
2022-12-08T00:32:06.771Z,-1.87
2022-12-08T00:34:34.560Z,-1.84
2022-12-08T00:37:02.379Z,-1.79
2022-12-08T00:39:30.246Z,-1.76
2022-12-08T00:42:13.540Z,-1.74
2022-12-08T00:44:42.833Z,-1.73
2022-12-08T00:47:11.516Z,-1.77
2022-12-08T00:49:39.478Z,-1.80
2022-12-08T00:52:07.656Z,-1.82
2022-12-08T00:54:35.407Z,-1.87
2022-12-08T00:57:03.251Z,-1.90
2022-12-08T00:59:30.948Z,-1.91
2022-12-08T01:01:59.107Z,-1.91
2022-12-08T01:04:26.880Z,-1.89
2022-12-08T01:06:54.814Z,-1.90
2022-12-08T01:09:22.590Z,-1.94
2022-12-08T01:11:50.484Z,-1.95
2022-12-08T01:14:18.369Z,-1.96
2022-12-08T01:16:46.186Z,-1.96
2022-12-08T01:19:14.921Z,-1.97
2022-12-08T01:21:43.365Z,-2.01
2022-12-08T01:24:15.467Z,-2.03
2022-12-08T01:26:43.575Z,-2.05
2022-12-08T01:29:11.502Z,-2.06
2022-12-08T01:31:39.854Z,-2.06
2022-12-08T01:34:08.592Z,-2.06
2022-12-08T01:36:37.301Z,-2.03
2022-12-08T01:39:07.139Z,-1.99
2022-12-08T01:41:36.132Z,-1.97
2022-12-08T01:44:08.344Z,-1.96
2022-12-08T01:46:38.071Z,-1.96
2022-12-08T01:49:12.622Z,-1.99
2022-12-08T01:51:44.251Z,-2.03
2022-12-08T01:54:12.582Z,-2.08
2022-12-08T01:56:50.639Z,-2.12
2022-12-08T01:59:19.355Z,-2.16
2022-12-08T02:01:47.163Z,-2.24
2022-12-08T02:04:14.916Z,-2.27
2022-12-08T02:06:44.695Z,-2.31
2022-12-08T02:09:12.911Z,-2.37
2022-12-08T02:11:40.679Z,-2.42
2022-12-08T02:14:11.605Z,-2.47
2022-12-08T02:16:49.349Z,-2.52
2022-12-08T02:19:32.577Z,-2.57
2022-12-08T02:22:00.351Z,-2.59
2022-12-08T02:24:28.152Z,-2.64
2022-12-08T02:27:31.318Z,-2.67
2022-12-08T02:29:59.133Z,-2.70
2022-12-08T02:33:05.607Z,-2.78
2022-12-08T02:35:42.159Z,-2.84
2022-12-08T02:38:25.269Z,-2.85
2022-12-08T02:41:12.212Z,-2.87
2022-12-08T02:43:45.369Z,-2.88
2022-12-08T02:46:19.582Z,-2.88
2022-12-08T02:48:47.947Z,-2.89
2022-12-08T02:51:15.637Z,-2.86
2022-12-08T02:53:43.863Z,-2.84
2022-12-08T02:56:11.526Z,-2.86
2022-12-08T02:58:52.736Z,-2.90
2022-12-08T03:01:32.807Z,-2.94
2022-12-08T03:04:08.772Z,-3.01
2022-12-08T03:06:48.943Z,-3.05
2022-12-08T03:09:19.838Z,-3.09
2022-12-08T03:11:52.221Z,-3.11
2022-12-08T03:14:21.479Z,-3.13
2022-12-08T03:16:51.179Z,-3.15
2022-12-08T03:19:21.367Z,-3.16
2022-12-08T03:21:51.854Z,-3.16
2022-12-08T03:24:22.181Z,-3.14
2022-12-08T03:26:58.649Z,-3.12
2022-12-08T03:29:26.432Z,-3.14
2022-12-08T03:31:56.241Z,-3.13
2022-12-08T03:34:26.218Z,-3.10
2022-12-08T03:36:53.966Z,-3.06
2022-12-08T03:39:21.703Z,-3.07
2022-12-08T03:41:49.507Z,-3.09
2022-12-08T03:44:17.159Z,-3.11
2022-12-08T03:46:45.853Z,-3.16
2022-12-08T03:49:13.596Z,-3.20
2022-12-08T03:51:41.311Z,-3.24
2022-12-08T03:54:09.001Z,-3.27
2022-12-08T03:56:37.711Z,-3.28
2022-12-08T03:59:06.556Z,-3.30
2022-12-08T04:01:34.350Z,-3.30
2022-12-08T04:04:02.564Z,-3.29
2022-12-08T04:06:30.349Z,-3.29
2022-12-08T04:08:58.075Z,-3.31
2022-12-08T04:11:25.823Z,-3.30
2022-12-08T04:13:53.579Z,-3.30
2022-12-08T04:16:24.071Z,-3.28
2022-12-08T04:18:52.899Z,-3.26
2022-12-08T04:21:20.761Z,-3.25
2022-12-08T04:23:49.225Z,-3.25
2022-12-08T04:26:17.488Z,-3.23
2022-12-08T04:28:45.285Z,-3.24
2022-12-08T04:31:13.013Z,-3.22
2022-12-08T04:33:40.844Z,-3.21
2022-12-08T04:36:09.313Z,-3.21
2022-12-08T04:38:37.076Z,-3.20
2022-12-08T04:41:04.827Z,-3.19
2022-12-08T04:43:32.553Z,-3.17
2022-12-08T04:46:00.306Z,-3.14
2022-12-08T04:48:28.059Z,-3.11
2022-12-08T04:50:55.871Z,-3.11
2022-12-08T04:53:23.621Z,-3.11
2022-12-08T04:55:51.328Z,-3.09
2022-12-08T04:58:19.884Z,-3.06
2022-12-08T05:00:47.899Z,-3.00
2022-12-08T05:03:15.771Z,-2.93
2022-12-08T05:05:43.858Z,-2.87
2022-12-08T05:08:11.665Z,-2.85
2022-12-08T05:10:39.526Z,-2.85
2022-12-08T05:13:07.529Z,-2.85
2022-12-08T05:15:35.290Z,-2.82
2022-12-08T05:18:05.223Z,-2.78
2022-12-08T05:20:33.123Z,-2.75
2022-12-08T05:23:00.938Z,-2.71
2022-12-08T05:25:28.721Z,-2.69
2022-12-08T05:28:17.733Z,-2.67
2022-12-08T05:30:44.229Z,-2.63
2022-12-08T05:33:11.954Z,-2.57
2022-12-08T05:35:39.865Z,-2.52
2022-12-08T05:38:07.630Z,-2.46
2022-12-08T05:40:37.255Z,-2.41
2022-12-08T05:43:05.135Z,-2.39
2022-12-08T05:45:33.649Z,-2.39
2022-12-08T05:48:01.983Z,-2.37
2022-12-08T05:50:29.824Z,-2.37
2022-12-08T05:52:57.579Z,-2.37
2022-12-08T05:55:25.283Z,-2.38
2022-12-08T05:57:53.014Z,-2.39
2022-12-08T06:00:21.474Z,-2.43
2022-12-08T06:02:49.247Z,-2.43
2022-12-08T06:05:17.108Z,-2.45
2022-12-08T06:07:44.951Z,-2.48
2022-12-08T06:10:13.005Z,-2.49
2022-12-08T06:12:40.847Z,-2.47
2022-12-08T06:15:08.885Z,-2.45
2022-12-08T06:17:36.673Z,-2.40
2022-12-08T06:20:05.054Z,-2.34
2022-12-08T06:22:33.139Z,-2.30
2022-12-08T06:25:00.867Z,-2.25
2022-12-08T06:27:28.586Z,-2.18
2022-12-08T06:29:56.517Z,-2.13
2022-12-08T06:32:27.539Z,-2.11
2022-12-08T06:34:55.617Z,-2.09
2022-12-08T06:37:23.417Z,-2.05
2022-12-08T06:39:52.062Z,-2.01
2022-12-08T06:42:38.585Z,-1.96
2022-12-08T06:45:06.942Z,-1.91
2022-12-08T06:47:35.045Z,-1.87
2022-12-08T06:50:03.724Z,-1.86
2022-12-08T06:52:31.733Z,-1.85
2022-12-08T06:54:59.515Z,-1.85
2022-12-08T06:57:27.319Z,-1.85
2022-12-08T06:59:55.254Z,-1.84
2022-12-08T07:02:23.040Z,-1.82
2022-12-08T07:04:51.560Z,-1.78
2022-12-08T07:07:19.319Z,-1.75
2022-12-08T07:09:47.117Z,-1.70
2022-12-08T07:12:14.903Z,-1.67
2022-12-08T07:14:42.596Z,-1.63
2022-12-08T07:17:10.389Z,-1.59
2022-12-08T07:19:38.167Z,-1.58
2022-12-08T07:22:06.021Z,-1.55
2022-12-08T07:24:33.783Z,-1.53
2022-12-08T07:27:01.606Z,-1.51
2022-12-08T07:29:29.373Z,-1.50
2022-12-08T07:31:57.241Z,-1.47
2022-12-08T07:34:27.179Z,-1.43
2022-12-08T07:36:54.979Z,-1.40
2022-12-08T07:39:22.787Z,-1.37
2022-12-08T07:41:50.723Z,-1.34
2022-12-08T07:44:18.437Z,-1.30
2022-12-08T07:46:46.314Z,-1.27
2022-12-08T07:49:14.182Z,-1.27
2022-12-08T07:51:41.940Z,-1.28
2022-12-08T07:54:12.889Z,-1.29
2022-12-08T07:56:40.666Z,-1.27
2022-12-08T07:59:08.437Z,-1.24
2022-12-08T08:01:36.406Z,-1.22
2022-12-08T08:04:05.355Z,-1.23
2022-12-08T08:06:34.844Z,-1.23
2022-12-08T08:09:02.605Z,-1.21
2022-12-08T08:11:30.439Z,-1.18
2022-12-08T08:13:58.276Z,-1.17
2022-12-08T08:16:26.164Z,-1.17
2022-12-08T08:18:54.103Z,-1.16
2022-12-08T08:21:45.011Z,-1.17
2022-12-08T08:24:09.968Z,-1.14
2022-12-08T08:26:37.757Z,-1.14
2022-12-08T08:29:05.562Z,-1.15
2022-12-08T08:31:33.437Z,-1.17
2022-12-08T08:34:06.294Z,-1.18
2022-12-08T08:36:34.292Z,-1.16
2022-12-08T08:39:02.506Z,-1.12
2022-12-08T08:41:30.287Z,-1.08
2022-12-08T08:43:57.945Z,-1.07
2022-12-08T08:46:25.825Z,-1.05
2022-12-08T08:48:53.692Z,-1.04
2022-12-08T08:51:21.554Z,-0.98
2022-12-08T08:53:49.483Z,-0.91
2022-12-08T08:56:19.392Z,-0.86
2022-12-08T08:58:49.047Z,-0.85
2022-12-08T09:01:17.789Z,-0.84
2022-12-08T09:03:45.881Z,-0.88
2022-12-08T09:06:14.050Z,-0.88
2022-12-08T09:08:42.252Z,-0.88
2022-12-08T09:11:10.459Z,-0.86
2022-12-08T09:13:38.303Z,-0.83
2022-12-08T09:16:07.770Z,-0.79
2022-12-08T09:18:35.710Z,-0.77
2022-12-08T09:21:04.740Z,-0.75
2022-12-08T09:23:35.571Z,-0.75
2022-12-08T09:26:05.186Z,-0.73
2022-12-08T09:28:33.335Z,-0.73
2022-12-08T09:31:01.164Z,-0.76
2022-12-08T09:33:29.085Z,-0.81
2022-12-08T09:35:56.949Z,-0.80
2022-12-08T09:38:24.740Z,-0.76
2022-12-08T09:40:53.658Z,-0.72
2022-12-08T09:43:33.816Z,-0.69
2022-12-08T09:46:04.972Z,-0.63
2022-12-08T10:06:39.392Z,-0.61
2022-12-08T10:09:25.699Z,-0.53
2022-12-08T10:12:00.308Z,-0.46
2022-12-08T10:14:30.982Z,-0.39
2022-12-08T10:17:02.398Z,-0.30
2022-12-08T10:19:31.353Z,-0.22
2022-12-08T10:21:59.842Z,-0.13
2022-12-08T10:24:37.437Z,-0.06
2022-12-08T10:27:05.609Z,-0.01
2022-12-08T10:29:33.581Z,0.03
2022-12-08T10:32:01.704Z,0.05
2022-12-08T10:34:29.614Z,0.05
2022-12-08T10:36:58.608Z,0.09
2022-12-08T10:39:30.555Z,0.17
2022-12-08T10:42:00.790Z,0.28
2022-12-08T10:44:28.932Z,0.38
2022-12-08T10:46:56.806Z,0.44
2022-12-08T10:49:32.318Z,0.48
2022-12-08T10:52:00.130Z,0.52
2022-12-08T10:54:36.970Z,0.54
2022-12-08T10:57:04.806Z,0.54
2022-12-08T10:59:33.707Z,0.56
2022-12-08T11:02:01.657Z,0.58
2022-12-08T11:04:38.584Z,0.58
2022-12-08T11:07:06.703Z,0.63
2022-12-08T11:09:34.411Z,0.70
2022-12-08T11:12:15.601Z,0.75
2022-12-08T11:14:43.228Z,0.82
2022-12-08T11:17:17.165Z,0.85
2022-12-08T11:20:06.713Z,0.88
2022-12-08T11:22:38.598Z,0.92
2022-12-08T11:25:12.273Z,0.94
2022-12-08T11:27:44.649Z,0.96
2022-12-08T11:30:23.075Z,0.99
2022-12-08T11:32:59.802Z,1.02
2022-12-08T11:35:30.870Z,1.06
2022-12-08T11:38:20.434Z,1.07
2022-12-08T11:41:16.521Z,1.08
2022-12-08T11:43:44.489Z,1.10
2022-12-08T11:46:32.654Z,1.13
2022-12-08T11:49:07.222Z,1.16
2022-12-08T11:51:42.312Z,1.20
2022-12-08T11:54:28.834Z,1.23
2022-12-08T11:56:57.731Z,1.27
2022-12-08T11:59:25.607Z,1.30
2022-12-08T12:01:53.368Z,1.32
2022-12-08T12:04:30.349Z,1.34
2022-12-08T12:07:07.108Z,1.36
2022-12-08T12:09:34.778Z,1.38
2022-12-08T12:12:15.840Z,1.40
2022-12-08T12:14:55.835Z,1.43
2022-12-08T12:17:39.270Z,1.45
2022-12-08T12:20:15.655Z,1.48
2022-12-08T12:22:45.107Z,1.51
2022-12-08T12:25:18.203Z,1.53
2022-12-08T12:27:46.738Z,1.51
2022-12-08T12:30:25.501Z,1.48
2022-12-08T12:32:58.442Z,1.46
2022-12-08T12:35:30.958Z,1.46
2022-12-08T12:38:01.941Z,1.46
2022-12-08T12:40:35.893Z,1.48
2022-12-08T12:43:03.743Z,1.49
2022-12-08T12:45:33.134Z,1.51
2022-12-08T12:48:00.904Z,1.54
2022-12-08T12:50:34.666Z,1.57
2022-12-08T12:53:02.506Z,1.60
2022-12-08T12:55:50.239Z,1.63
2022-12-08T12:58:30.274Z,1.64
2022-12-08T13:01:10.186Z,1.64
2022-12-08T13:03:39.755Z,1.64
2022-12-08T13:06:14.133Z,1.64
2022-12-08T13:08:56.287Z,1.65
2022-12-08T13:11:24.257Z,1.64
2022-12-08T13:13:56.535Z,1.62
2022-12-08T13:16:26.441Z,1.61
2022-12-08T13:18:58.675Z,1.60
2022-12-08T13:21:32.090Z,1.63
2022-12-08T13:24:35.765Z,1.68
2022-12-08T13:27:03.487Z,1.70
2022-12-08T13:29:32.190Z,1.71
2022-12-08T13:32:02.101Z,1.75
2022-12-08T13:34:48.514Z,1.77
2022-12-08T13:37:22.306Z,1.78
2022-12-08T13:39:53.696Z,1.78
2022-12-08T13:42:27.562Z,1.79
2022-12-08T13:45:24.173Z,1.82
2022-12-08T13:48:27.941Z,1.85
2022-12-08T13:57:09.950Z,1.86
2022-12-08T13:59:46.399Z,1.86
2022-12-08T14:02:20.642Z,1.84
2022-12-08T14:07:38.737Z,1.82
2022-12-08T14:10:08.749Z,1.81
2022-12-08T14:12:36.784Z,1.83
2022-12-08T14:15:06.382Z,1.85
2022-12-08T14:17:34.137Z,1.89
2022-12-08T14:20:20.553Z,1.91
2022-12-08T14:22:48.391Z,1.93
2022-12-08T14:25:16.954Z,1.96
2022-12-08T14:27:45.290Z,2.00
2022-12-08T14:30:16.181Z,2.04
2022-12-08T14:32:46.866Z,2.08
2022-12-08T14:35:34.364Z,2.10
2022-12-08T14:38:04.008Z,2.11
2022-12-08T14:40:39.441Z,2.13
2022-12-08T14:43:10.311Z,2.13
2022-12-08T14:45:41.442Z,2.14
2022-12-08T14:48:25.641Z,2.15
2022-12-08T14:50:56.379Z,2.16
2022-12-08T14:53:24.827Z,2.18
2022-12-08T14:55:52.616Z,2.17
2022-12-08T14:58:29.021Z,2.17
2022-12-08T15:00:58.579Z,2.18
2022-12-08T15:03:27.904Z,2.17
2022-12-08T15:05:57.643Z,2.14
2022-12-08T15:08:25.771Z,2.12
2022-12-08T15:11:14.663Z,2.11
2022-12-08T15:13:46.508Z,2.11
2022-12-08T15:16:34.320Z,2.11
2022-12-08T15:19:16.860Z,2.14
2022-12-08T15:21:46.104Z,2.18
2022-12-08T15:24:14.919Z,2.23
2022-12-08T15:26:47.392Z,2.25
2022-12-08T15:29:23.010Z,2.26
2022-12-08T15:31:52.628Z,2.27
2022-12-08T15:34:22.943Z,2.28
2022-12-08T15:36:52.279Z,2.30
2022-12-08T15:39:33.150Z,2.29
2022-12-08T15:42:01.943Z,2.28
2022-12-08T15:44:32.498Z,2.27
2022-12-08T15:47:00.371Z,2.27
2022-12-08T15:49:28.342Z,2.27
2022-12-08T15:52:06.511Z,2.29
2022-12-08T15:54:38.982Z,2.33
2022-12-08T15:57:48.801Z,2.36
2022-12-08T15:59:55.431Z,2.41
2022-12-08T16:02:25.150Z,2.43
2022-12-08T16:07:41.205Z,2.44
2022-12-08T16:10:20.024Z,2.43
2022-12-08T16:13:55.703Z,2.42
2022-12-08T16:16:00.396Z,2.41
2022-12-08T16:18:31.567Z,2.40
2022-12-08T16:23:47.328Z,2.43
2022-12-08T16:26:36.014Z,2.46
2022-12-08T16:29:05.202Z,2.48
2022-12-08T16:31:33.180Z,2.47
2022-12-08T16:34:01.151Z,2.47
2022-12-08T16:36:30.912Z,2.48
2022-12-08T16:38:58.683Z,2.47
2022-12-08T16:41:45.249Z,2.47
2022-12-08T16:44:13.311Z,2.47
2022-12-08T16:46:41.315Z,2.48
2022-12-08T16:49:09.844Z,2.50
2022-12-08T16:51:37.757Z,2.51
2022-12-08T16:54:05.488Z,2.52
2022-12-08T16:56:33.828Z,2.51
2022-12-08T16:59:02.466Z,2.49
2022-12-08T17:01:30.505Z,2.47
2022-12-08T17:04:29.898Z,2.44
2022-12-08T17:06:46.243Z,2.41
2022-12-08T17:09:14.036Z,2.36
2022-12-08T17:11:43.660Z,2.31
2022-12-08T17:14:13.349Z,2.26
2022-12-08T17:16:41.165Z,2.22
2022-12-08T17:19:09.617Z,2.17
2022-12-08T17:21:37.485Z,2.16
2022-12-08T17:24:05.492Z,2.16
2022-12-08T17:26:33.850Z,2.18
2022-12-08T17:29:02.559Z,2.22
2022-12-08T17:31:31.788Z,2.26
2022-12-08T17:34:01.048Z,2.29
2022-12-08T17:36:28.780Z,2.34
2022-12-08T17:38:57.153Z,2.37
2022-12-08T17:41:24.952Z,2.40
2022-12-08T17:43:52.708Z,2.40
2022-12-08T17:46:21.080Z,2.40
2022-12-08T17:48:49.108Z,2.39
2022-12-08T17:51:16.952Z,2.39
2022-12-08T17:53:44.777Z,2.38
2022-12-08T17:56:14.690Z,2.39
2022-12-08T17:58:42.499Z,2.40
2022-12-08T18:01:10.879Z,2.40
2022-12-08T18:03:39.155Z,2.40
2022-12-08T18:06:10.694Z,2.39
2022-12-08T18:08:38.741Z,2.37
2022-12-08T18:11:11.741Z,2.36
2022-12-08T18:13:39.880Z,2.36
2022-12-08T18:16:07.830Z,2.33
2022-12-08T18:18:35.559Z,2.32
2022-12-08T18:21:03.749Z,2.31
2022-12-08T18:23:31.727Z,2.28
2022-12-08T18:25:59.475Z,2.25
2022-12-08T18:28:27.244Z,2.25
2022-12-08T18:30:55.002Z,2.26
2022-12-08T18:33:22.865Z,2.26
2022-12-08T18:35:50.850Z,2.27
2022-12-08T18:38:18.603Z,2.29
2022-12-08T18:40:46.317Z,2.32
2022-12-08T18:43:13.979Z,2.35
2022-12-08T18:45:42.533Z,2.36
2022-12-08T18:48:10.324Z,2.37
